createdAt,value
2022-08-11T00:02:24.931Z,21
2022-08-11T00:07:26.676Z,26
2022-08-11T00:12:28.263Z,12
2022-08-11T00:17:29.854Z,13
2022-08-11T00:22:31.545Z,38
2022-08-11T00:27:33.158Z,35
2022-08-11T00:32:34.786Z,11
2022-08-11T00:37:36.397Z,13
2022-08-11T00:42:38.456Z,11
2022-08-11T00:47:40.233Z,47
2022-08-11T00:52:41.911Z,35
2022-08-11T00:57:43.502Z,16
2022-08-11T01:02:45.299Z,24
2022-08-11T01:08:01.063Z,24
2022-08-11T01:13:04.725Z,20
2022-08-11T01:18:10.313Z,16
2022-08-11T01:23:12.579Z,13
2022-08-11T01:28:17.481Z,11
2022-08-11T01:33:19.082Z,30
2022-08-11T01:38:20.691Z,19
2022-08-11T01:43:22.277Z,28
2022-08-11T01:48:24.032Z,22
2022-08-11T01:53:25.819Z,23
2022-08-11T01:58:34.298Z,20
2022-08-11T02:03:45.948Z,20
2022-08-11T02:08:50.806Z,21
2022-08-11T02:13:52.599Z,43
2022-08-11T02:18:54.896Z,48
2022-08-11T02:24:05.475Z,34
2022-08-11T02:29:09.288Z,37
2022-08-11T02:34:10.883Z,62
2022-08-11T02:39:12.721Z,14
2022-08-11T02:44:14.313Z,14
2022-08-11T02:49:15.968Z,17
2022-08-11T02:54:17.597Z,15
2022-08-11T02:59:19.169Z,31
2022-08-11T03:04:20.968Z,17
2022-08-11T03:09:22.695Z,32
2022-08-11T03:14:24.466Z,17
2022-08-11T03:19:28.263Z,32
2022-08-11T03:24:29.863Z,19
2022-08-11T03:29:31.543Z,17
2022-08-11T03:34:33.144Z,16
2022-08-11T03:39:34.809Z,30
2022-08-11T03:44:36.431Z,18
2022-08-11T03:49:38.063Z,22
2022-08-11T03:54:39.722Z,17
2022-08-11T03:59:41.436Z,20
2022-08-11T04:04:49.904Z,10
2022-08-11T04:09:53.239Z,19
2022-08-11T04:14:54.835Z,16
2022-08-11T04:19:56.468Z,14
2022-08-11T04:24:58.073Z,18
2022-08-11T04:30:03.878Z,20
2022-08-11T04:35:07.515Z,18
2022-08-11T04:40:09.109Z,21
2022-08-11T04:45:10.845Z,23
2022-08-11T04:50:12.685Z,19
2022-08-11T04:55:14.304Z,22
2022-08-11T05:00:15.988Z,20
2022-08-11T05:05:17.796Z,23
2022-08-11T05:10:19.428Z,22
2022-08-11T05:15:21.042Z,23
2022-08-11T05:20:22.866Z,22
2022-08-11T05:26:47.639Z,18
2022-08-11T05:31:50.723Z,16
2022-08-11T05:36:52.402Z,15
2022-08-11T05:41:54.165Z,20
2022-08-11T05:46:55.779Z,13
2022-08-11T05:51:57.396Z,18
2022-08-11T05:57:07.759Z,22
2022-08-11T06:02:09.371Z,16
2022-08-11T06:07:10.962Z,20
2022-08-11T06:12:12.709Z,15
2022-08-11T06:17:14.311Z,16
2022-08-11T06:22:15.925Z,15
2022-08-11T06:27:17.543Z,16
2022-08-11T06:32:19.109Z,17
2022-08-11T06:37:20.723Z,15
2022-08-11T06:42:22.476Z,14
2022-08-11T06:47:24.062Z,17
2022-08-11T06:52:34.700Z,14
2022-08-11T06:57:37.176Z,17
2022-08-11T07:02:38.796Z,19
2022-08-11T07:07:40.460Z,17
2022-08-11T07:12:42.073Z,18
2022-08-11T07:17:43.664Z,22
2022-08-11T07:22:45.305Z,19
2022-08-11T07:27:46.921Z,16
2022-08-11T07:32:48.590Z,17
2022-08-11T07:37:50.212Z,16
2022-08-11T07:43:03.439Z,16
2022-08-11T07:48:05.020Z,28
2022-08-11T07:53:06.676Z,18
2022-08-11T07:58:15.905Z,20
2022-08-11T08:03:21.700Z,20
2022-08-11T08:08:23.334Z,20
2022-08-11T08:13:24.932Z,19
2022-08-11T08:18:27.817Z,15
2022-08-11T08:23:29.627Z,16
2022-08-11T08:28:32.638Z,18
2022-08-11T08:33:34.500Z,19
2022-08-11T08:38:36.105Z,17
2022-08-11T08:43:48.446Z,19
2022-08-11T08:48:53.120Z,21
2022-08-11T08:53:58.510Z,19
2022-08-11T08:59:00.389Z,12
2022-08-11T09:04:10.588Z,21
2022-08-11T09:09:13.269Z,19
2022-08-11T09:14:15.319Z,18
2022-08-11T09:19:17.048Z,13
2022-08-11T09:24:25.793Z,15
2022-08-11T09:29:28.189Z,17
2022-08-11T09:34:29.841Z,16
2022-08-11T09:39:31.568Z,17
2022-08-11T09:44:33.163Z,17
2022-08-11T09:49:35.862Z,24
2022-08-11T09:54:37.393Z,25
2022-08-11T09:59:38.987Z,22
2022-08-11T10:04:40.571Z,17
2022-08-11T10:09:42.172Z,23
2022-08-11T10:14:44.993Z,22
2022-08-11T10:19:48.778Z,22
2022-08-11T10:25:06.360Z,21
2022-08-11T10:30:08.009Z,21
2022-08-11T10:35:09.800Z,22
2022-08-11T10:40:11.490Z,24
2022-08-11T10:45:13.100Z,22
2022-08-11T10:50:14.739Z,27
2022-08-11T10:55:16.313Z,19
2022-08-11T11:00:17.925Z,24
2022-08-11T11:05:19.560Z,20
2022-08-11T11:10:21.170Z,19
2022-08-11T11:15:22.767Z,22
2022-08-11T11:20:36.101Z,23
2022-08-11T11:25:42.729Z,22
2022-08-11T11:30:44.547Z,21
2022-08-11T11:35:46.222Z,19
2022-08-11T11:40:47.797Z,22
2022-08-11T11:45:49.412Z,23
2022-08-11T11:50:52.213Z,19
2022-08-11T11:55:55.336Z,20
2022-08-11T12:00:56.974Z,32
2022-08-11T12:05:58.649Z,21
2022-08-11T12:11:00.264Z,24
2022-08-11T12:16:31.290Z,22
2022-08-11T12:21:36.786Z,21
2022-08-11T12:26:38.408Z,20
2022-08-11T12:31:40.021Z,19
2022-08-11T12:36:41.651Z,20
2022-08-11T12:41:43.301Z,21
2022-08-11T12:46:45.001Z,21
2022-08-11T12:52:12.925Z,15
2022-08-11T12:57:15.928Z,20
2022-08-11T13:02:29.223Z,18
2022-08-11T13:07:37.175Z,21
2022-08-11T13:12:52.663Z,14
2022-08-11T13:17:54.272Z,19
2022-08-11T13:22:55.856Z,17
2022-08-11T13:27:57.482Z,17
2022-08-11T13:33:01.807Z,18
2022-08-11T13:38:18.504Z,17
2022-08-11T13:43:21.851Z,17
2022-08-11T13:48:23.457Z,19
2022-08-11T13:53:25.070Z,24
2022-08-11T13:58:40.371Z,19
2022-08-11T14:04:30.982Z,22
2022-08-11T14:09:33.761Z,28
2022-08-11T14:14:35.345Z,21
2022-08-11T14:19:36.984Z,20
2022-08-11T14:24:38.607Z,25
2022-08-11T14:29:43.192Z,23
2022-08-11T14:34:50.474Z,24
2022-08-11T14:39:52.151Z,24
2022-08-11T14:44:55.255Z,25
2022-08-11T14:49:58.614Z,25
2022-08-11T14:55:12.179Z,30
2022-08-11T15:00:13.835Z,38
2022-08-11T15:05:15.458Z,32
2022-08-11T15:10:17.436Z,38
2022-08-11T15:15:19.096Z,47
2022-08-11T15:20:20.773Z,36
2022-08-11T15:25:22.390Z,35
2022-08-11T15:30:33.081Z,40
2022-08-11T15:35:39.485Z,34
2022-08-11T15:40:41.426Z,34
2022-08-11T15:45:45.067Z,40
2022-08-11T15:50:46.674Z,32
2022-08-11T15:55:48.838Z,37
2022-08-11T16:00:57.994Z,39
2022-08-11T16:06:05.318Z,32
2022-08-11T16:11:08.887Z,34
2022-08-11T16:16:10.592Z,34
2022-08-11T16:21:33.643Z,32
2022-08-11T16:27:10.811Z,32
2022-08-11T16:32:14.918Z,29
2022-08-11T16:37:16.526Z,36
2022-08-11T16:43:06.373Z,34
2022-08-11T16:48:34.956Z,33
2022-08-11T16:53:59.542Z,33
2022-08-11T16:59:06.533Z,26
2022-08-11T17:04:08.243Z,31
2022-08-11T17:09:09.878Z,29
2022-08-11T17:14:11.474Z,27
2022-08-11T17:19:13.098Z,30
2022-08-11T17:24:14.710Z,32
2022-08-11T17:29:16.336Z,31
2022-08-11T17:34:18.011Z,35
2022-08-11T17:39:19.626Z,29
2022-08-11T17:44:21.287Z,34
2022-08-11T17:49:22.949Z,32
2022-08-11T17:54:25.407Z,30
2022-08-11T17:59:32.390Z,35
2022-08-11T18:04:34.179Z,30
2022-08-11T18:09:35.871Z,35
2022-08-11T18:14:37.464Z,40
2022-08-11T18:19:39.121Z,35
2022-08-11T18:24:40.747Z,31
2022-08-11T18:29:42.505Z,35
2022-08-11T18:34:48.230Z,32
2022-08-11T18:39:54.649Z,37
2022-08-11T18:44:58.361Z,33
2022-08-11T18:50:02.592Z,36
2022-08-11T18:55:05.816Z,40
2022-08-11T19:00:12.027Z,35
2022-08-11T19:05:13.592Z,31
2022-08-11T19:10:15.239Z,29
2022-08-11T19:15:16.825Z,36
2022-08-11T19:20:18.414Z,32
2022-08-11T19:25:25.153Z,31
2022-08-11T19:30:27.269Z,31
2022-08-11T19:35:28.912Z,32
2022-08-11T19:40:30.544Z,34
2022-08-11T19:45:32.173Z,32
2022-08-11T19:50:33.858Z,29
2022-08-11T19:55:40.369Z,28
2022-08-11T20:00:42.099Z,35
2022-08-11T20:05:55.595Z,36
2022-08-11T20:11:01.516Z,30
2022-08-11T20:16:03.166Z,34
2022-08-11T20:21:04.797Z,37
2022-08-11T20:26:31.183Z,36
2022-08-11T20:31:33.468Z,34
2022-08-11T20:36:35.078Z,35
2022-08-11T20:41:58.419Z,29
2022-08-11T20:47:01.244Z,33
2022-08-11T20:52:06.012Z,42
2022-08-11T20:57:12.664Z,35
2022-08-11T21:02:14.753Z,38
2022-08-11T21:07:28.552Z,62
2022-08-11T21:12:30.772Z,43
2022-08-11T21:17:33.083Z,40
2022-08-11T21:22:34.720Z,48
2022-08-11T21:27:36.310Z,44
2022-08-11T21:32:37.989Z,48
2022-08-11T21:37:39.643Z,40
2022-08-11T21:42:43.075Z,45
2022-08-11T21:47:44.679Z,45
2022-08-11T21:52:46.297Z,31
2022-08-11T21:57:50.236Z,37
2022-08-11T22:02:53.417Z,44
2022-08-11T22:07:55.440Z,35
2022-08-11T22:12:57.037Z,39
2022-08-11T22:17:58.707Z,36
2022-08-11T22:23:00.333Z,30
2022-08-11T22:28:02.649Z,36
2022-08-11T22:33:04.268Z,36
2022-08-11T22:38:05.942Z,32
2022-08-11T22:43:07.523Z,29
2022-08-11T22:48:09.164Z,33
2022-08-11T22:53:10.793Z,34
2022-08-11T22:58:12.457Z,31
2022-08-11T23:03:14.067Z,34
2022-08-11T23:08:39.701Z,33
2022-08-11T23:13:41.315Z,36
2022-08-11T23:18:42.921Z,38
2022-08-11T23:23:44.921Z,30
2022-08-11T23:28:46.578Z,31
2022-08-11T23:33:48.153Z,39
2022-08-11T23:38:49.789Z,35
2022-08-11T23:43:51.415Z,31
2022-08-11T23:48:53.070Z,35
2022-08-11T23:53:54.670Z,34
2022-08-11T23:58:56.309Z,30
